Melle, Belgium
Current Conditions -  °F | °C
As of 8:25 AM on Saturday 20 Dec 2014 (Local Time) from EBCV Reporting Station
Broken Clouds Broken Clouds  
Wind Chill: 34°   Ceiling: 4700
Heat Index: 41°   Visibility: 6mi
Dew Point: 37°   Wind: 12mph
Humidity: 87%   Direction: 230°SW
Pressure: 30.3"   Gusts: NA
Location:  51°N, 3.81°E
Report Text: EBCV 200725Z AUTO 23010KT 9999 BKN047/// BKN170/// 05/03 Q1026 BLU
Loading
Personal Weather Stations






























Interactive Weather Map New forecast layout! Learn more

10-Day Weather Forecast

Advertisements
Track Severe Weather on mobile